Time;durP1;ratioP1;P1;durP2;ratioP2;P2;SDS_P1;SDS_P2;PMS_P1;PMS_P2;Temp;Humidity;BMP_temperature;BMP_pressure;BME280_temperature;BME280_humidity;BME280_pressure;Samples;Min_cycle;Max_cycle;Signal;HPM_P1;HPM_P2
2021/03/27 00:06:39;;;;;;;16.15;13.07;;;;;;;19.59;38.74;100771.44;31360660;28;20091;-60
2021/03/27 00:21:50;;;;;;;15.00;12.20;;;;;;;19.51;38.87;100757.25;31375742;28;20091;-61
2021/03/27 00:36:54;;;;;;;13.82;12.00;;;;;;;19.43;39.03;100734.19;31373379;28;20071;-60
2021/03/27 00:52:02;;;;;;;13.88;11.73;;;;;;;19.36;39.41;100725.16;31353778;28;20045;-60
2021/03/27 01:07:05;;;;;;;14.77;11.35;;;;;;;19.29;39.30;100710.81;31351123;28;20037;-60
2021/03/27 01:22:07;;;;;;;14.20;11.68;;;;;;;19.22;39.48;100673.66;31335357;28;20049;-60
2021/03/27 01:37:17;;;;;;;15.00;11.90;;;;;;;19.17;39.61;100652.97;31350236;28;20021;-60
2021/03/27 01:52:37;;;;;;;12.98;11.13;;;;;;;19.14;39.57;100629.53;31450031;28;20044;-60
2021/03/27 02:07:48;;;;;;;12.65;11.00;;;;;;;19.10;39.59;100612.31;31487026;28;20028;-60
2021/03/27 02:23:00;;;;;;;12.23;10.93;;;;;;;19.07;39.67;100619.66;31485268;28;20029;-60
2021/03/27 02:38:23;;;;;;;12.18;10.88;;;;;;;19.02;39.68;100597.19;31484407;28;20478;-60
2021/03/27 02:53:47;;;;;;;12.20;10.73;;;;;;;19.01;39.76;100606.06;31388033;28;20071;-60
2021/03/27 03:08:57;;;;;;;12.40;10.75;;;;;;;18.97;39.78;100590.66;31360290;28;20378;-60
2021/03/27 03:24:21;;;;;;;11.15;9.93;;;;;;;18.94;39.67;100581.22;31381706;28;20471;-60
2021/03/27 03:39:28;;;;;;;10.57;9.48;;;;;;;18.92;39.74;100577.03;31378364;28;20036;-59
2021/03/27 03:54:40;;;;;;;10.75;9.30;;;;;;;18.88;39.63;100560.69;31481553;28;20041;-60
2021/03/27 04:09:45;;;;;;;11.15;9.57;;;;;;;18.86;39.78;100538.09;31500556;28;20024;-60
2021/03/27 04:25:17;;;;;;;10.68;9.20;;;;;;;18.85;39.65;100574.13;31478861;28;20036;-60
2021/03/27 04:40:26;;;;;;;10.30;9.30;;;;;;;18.81;39.42;100570.09;31496537;28;20094;-60
2021/03/27 04:55:41;;;;;;;10.15;8.93;;;;;;;18.79;39.58;100566.78;31384271;28;20033;-60
2021/03/27 05:11:10;;;;;;;11.40;9.60;;;;;;;18.77;39.54;100556.34;31355215;28;20037;-60
2021/03/27 05:26:28;;;;;;;9.77;8.77;;;;;;;18.77;39.74;100545.84;31339006;28;20503;-61
2021/03/27 05:41:41;;;;;;;9.82;8.82;;;;;;;18.84;39.58;100540.88;31364744;28;20056;-60
2021/03/27 05:57:04;;;;;;;10.50;8.63;;;;;;;18.94;39.34;100532.97;31486540;28;20097;-60
2021/03/27 06:12:09;;;;;;;10.60;8.38;;;;;;;19.00;39.00;100514.00;31487721;28;20025;-60
2021/03/27 06:27:22;;;;;;;10.38;8.30;;;;;;;19.03;38.82;100517.22;31485029;28;20025;-61
2021/03/27 06:42:28;;;;;;;9.20;8.00;;;;;;;19.20;38.37;100506.97;31479436;28;20032;-61
2021/03/27 06:58:09;;;;;;;9.52;8.18;;;;;;;19.14;38.44;100489.06;31360689;28;20056;-61
2021/03/27 07:13:55;;;;;;;9.00;7.80;;;;;;;19.00;38.85;100590.38;31516531;28;20028;-62
2021/03/27 07:29:37;;;;;;;8.95;7.70;;;;;;;18.83;39.12;100599.78;31451824;28;20048;-61
2021/03/27 07:44:56;;;;;;;9.55;7.75;;;;;;;18.80;39.22;100557.88;31463855;28;20025;-62
2021/03/27 08:00:28;;;;;;;12.32;8.02;;;;;;;18.75;39.56;100681.19;31577117;28;20086;-61
2021/03/27 08:15:57;;;;;;;9.75;8.38;;;;;;;18.78;39.70;100752.91;31533555;28;20473;-62
2021/03/27 08:31:13;;;;;;;10.20;8.10;;;;;;;18.83;39.48;100811.28;31532188;28;20024;-62
2021/03/27 08:46:23;;;;;;;9.02;7.40;;;;;;;18.79;39.67;100888.03;31570820;28;20043;-61
2021/03/27 09:01:58;;;;;;;9.55;7.20;;;;;;;18.77;39.76;100921.53;31517722;28;20090;-61
2021/03/27 09:17:36;;;;;;;8.18;6.80;;;;;;;18.80;39.44;100955.50;31439140;28;20032;-61
2021/03/27 09:32:47;;;;;;;8.00;6.78;;;;;;;18.79;39.30;100986.28;31482190;28;20028;-60
2021/03/27 09:47:54;;;;;;;8.07;5.90;;;;;;;18.97;39.15;100993.66;31502553;28;20028;-60
2021/03/27 10:03:07;;;;;;;6.68;5.75;;;;;;;19.32;38.43;101011.84;31441286;28;20070;-62
2021/03/27 10:18:14;;;;;;;7.65;4.88;;;;;;;19.88;37.71;101023.91;31399461;28;20091;-59
2021/03/27 10:33:21;;;;;;;6.10;4.13;;;;;;;20.85;36.42;101023.53;31408919;28;20044;-62
2021/03/27 10:48:43;;;;;;;6.50;4.50;;;;;;;24.53;28.75;101028.81;31356187;28;20041;-62
2021/03/27 11:04:00;;;;;;;5.60;4.18;;;;;;;21.88;33.78;101080.34;31455446;28;20089;-61
2021/03/27 11:19:09;;;;;;;5.00;4.03;;;;;;;22.65;33.58;101092.53;31388570;28;20025;-57
2021/03/27 11:34:38;;;;;;;6.15;4.10;;;;;;;23.03;33.01;101106.59;31413352;28;20556;-59
2021/03/27 11:49:47;;;;;;;6.30;3.85;;;;;;;22.94;33.34;101097.69;31460910;28;20466;-59
2021/03/27 12:04:54;;;;;;;4.20;3.45;;;;;;;22.59;34.05;101112.50;31511173;28;20055;-64
2021/03/27 12:20:20;;;;;;;5.47;3.67;;;;;;;23.02;33.31;101097.00;31533986;28;20517;-58
2021/03/27 12:35:23;;;;;;;;;;;;;;;22.67;34.34;101087.91;31477216;28;20024;-59
2021/03/27 12:50:34;;;;;;;7.93;3.35;;;;;;;22.24;35.15;101107.03;31461567;28;19931;-61
2021/03/27 13:05:41;;;;;;;9.43;3.53;;;;;;;21.46;36.65;101218.16;31477574;28;20049;-61
2021/03/27 13:21:13;;;;;;;7.30;3.20;;;;;;;21.21;36.18;101211.50;31467509;28;20503;-60
2021/03/27 13:36:17;;;;;;;7.25;3.17;;;;;;;21.00;35.41;101238.81;31452472;28;20028;-61
2021/03/27 13:51:57;;;;;;;8.57;2.60;;;;;;;20.27;35.17;101269.59;31464685;28;20045;-61
2021/03/27 14:07:05;;;;;;;5.88;2.30;;;;;;;19.98;35.53;101288.66;31471702;28;20024;-61
2021/03/27 14:22:30;;;;;;;4.97;1.88;;;;;;;19.92;35.44;101304.97;31445585;28;20036;-60
2021/03/27 14:37:35;;;;;;;6.03;2.20;;;;;;;19.98;35.85;101319.50;31436555;28;20048;-59
2021/03/27 14:52:48;;;;;;;4.35;1.90;;;;;;;20.06;36.12;101362.75;31452673;28;20044;-59
2021/03/27 15:08:07;;;;;;;5.13;1.70;;;;;;;20.22;34.58;101361.53;31479292;28;20041;-58
2021/03/27 15:23:20;;;;;;;7.45;1.95;;;;;;;20.01;32.66;101374.66;31435637;28;20070;-58
2021/03/27 15:38:32;;;;;;;7.75;1.70;;;;;;;20.00;34.40;101386.19;31500174;28;20037;-58
2021/03/27 15:53:37;;;;;;;4.85;1.60;;;;;;;20.00;34.71;101373.81;31393025;28;20041;-59
2021/03/27 16:08:57;;;;;;;4.95;1.63;;;;;;;20.00;35.56;101383.53;31365646;28;20037;-60
2021/03/27 16:24:06;;;;;;;4.95;1.70;;;;;;;19.80;36.16;101395.66;31399205;28;20105;-60
2021/03/27 16:39:26;;;;;;;5.53;2.15;;;;;;;19.60;36.26;101452.53;31494954;28;20070;-61
2021/03/27 16:54:39;;;;;;;2.92;1.67;;;;;;;19.59;36.34;101471.97;31390898;28;20407;-60
2021/03/27 17:09:48;;;;;;;3.90;2.10;;;;;;;19.48;36.56;101514.97;31372669;28;20029;-60
2021/03/27 17:25:02;;;;;;;4.85;2.30;;;;;;;19.36;36.46;101551.00;31370975;28;20118;-60
2021/03/27 17:40:14;;;;;;;5.40;2.40;;;;;;;19.29;36.30;101568.22;31385404;28;20028;-60
2021/03/27 17:55:31;;;;;;;4.95;2.30;;;;;;;19.21;36.16;101602.19;31379512;28;20115;-60
2021/03/27 18:10:33;;;;;;;4.57;2.53;;;;;;;19.15;36.19;101621.06;31466855;28;20387;-60
2021/03/27 18:25:35;;;;;;;2.78;1.30;;;;;;;16.84;32.34;101640.84;31482058;28;20093;-57
2021/03/27 18:40:47;;;;;;;3.28;1.50;;;;;;;17.38;36.09;101662.81;31561783;28;20040;-58
2021/03/27 18:55:48;;;;;;;4.18;1.45;;;;;;;18.76;34.70;101665.94;31430079;28;20049;-59
2021/03/27 19:10:51;;;;;;;3.95;1.65;;;;;;;19.52;35.09;101681.72;31424795;28;20081;-61
2021/03/27 19:26:27;;;;;;;4.22;1.58;;;;;;;20.14;34.55;101696.53;31543171;28;20028;-58
2021/03/27 19:41:38;;;;;;;3.60;1.58;;;;;;;20.53;33.93;101705.00;31537038;28;20040;-57
2021/03/27 19:56:57;;;;;;;11.70;7.68;;;;;;;19.98;27.96;101726.69;31555880;28;20036;-58
2021/03/27 20:12:14;;;;;;;9.73;3.55;;;;;;;20.25;33.13;101762.56;31554768;28;20084;-59
2021/03/27 20:27:52;;;;;;;5.30;2.83;;;;;;;20.68;32.90;101783.97;31534707;28;20040;-59
2021/03/27 20:43:16;;;;;;;5.05;2.55;;;;;;;20.77;32.75;101800.03;31492438;28;20040;-56
2021/03/27 20:58:32;;;;;;;4.13;2.40;;;;;;;20.75;33.04;101831.84;31583832;28;20032;-61
2021/03/27 21:13:40;;;;;;;3.83;2.27;;;;;;;20.82;32.95;101842.81;31559653;28;20039;-59
2021/03/27 21:29:31;;;;;;;6.25;2.38;;;;;;;20.96;32.97;101869.06;31557537;28;20048;-61
2021/03/27 21:44:55;;;;;;;4.13;2.22;;;;;;;21.01;32.83;101895.97;31564601;28;20036;-57
2021/03/27 22:00:32;;;;;;;3.83;2.10;;;;;;;20.93;34.84;101928.25;31475116;28;20041;-57
2021/03/27 22:15:46;;;;;;;4.10;2.20;;;;;;;20.35;35.94;101931.69;31489686;28;20037;-59
2021/03/27 22:30:52;;;;;;;4.18;2.47;;;;;;;20.18;36.67;101939.03;31460822;28;20152;-58
2021/03/27 22:45:56;;;;;;;3.83;2.23;;;;;;;20.07;37.38;101960.88;31443379;28;20049;-61
2021/03/27 23:01:05;;;;;;;4.57;2.30;;;;;;;19.95;37.62;101968.81;31457706;28;20107;-60
2021/03/27 23:16:06;;;;;;;4.25;2.17;;;;;;;19.79;38.07;101987.50;31337165;22;20776;-55
2021/03/27 23:31:17;;;;;;;3.72;1.98;;;;;;;19.70;38.26;101996.03;31100520;28;20404;-58
2021/03/27 23:46:31;;;;;;;4.13;2.35;;;;;;;19.60;38.37;102011.63;31140174;28;20099;-54
